Flight Track Log - Related Links

Times and Time Zones

All times are in EDT time to prevent confusion due to time zone crossing. See the FDX1343 flight status page for this flight to view local times or setup timezone preferences in your user account.

Time Position Orientation Groundspeed Altitude Reporting Facility
EDT Latitude Longitude Course Direction KTS MPH feet Rate Location/Type
Thu 11:05:53 PM 43.5622 -96.7592 154° Southeast 198 228 2,800  Level Minneapolis Center
Thu 11:06:55 PM 43.5150 -96.7453 168° South 171 197 5,000 2,371 Climbing Minneapolis Center
Thu 11:07:57 PM 43.4453 -96.7111 160° South 229 264 7,700 2,927 Climbing Minneapolis Center
Thu 11:08:58 PM 43.3550 -96.6728 163° South 277 319 11,000 2,341 Climbing Minneapolis Center
Thu 11:10:00 PM 43.2606 -96.6306 162° South 350 403 12,500 1,935 Climbing Minneapolis Center
Thu 11:11:00 PM 43.1196 -96.3199 154° Southeast  Level Estimated
Thu 11:11:02 PM 43.1567 -96.5856 162° South 386 444 15,000  Level Minneapolis Center
Thu 11:12:04 PM 43.0494 -96.5386 162° South 399 459 17,300 2,098 Climbing Minneapolis Center
Thu 11:13:05 PM 42.9372 -96.4897 162° South 417 480 19,300 1,902 Climbing Minneapolis Center
Thu 11:14:07 PM 42.8203 -96.4369 162° South 436 502 21,200 1,790 Climbing Minneapolis Center
Thu 11:15:09 PM 42.6744 -96.3747 163° South 461 531 23,000 1,848 Climbing Minneapolis Center
Thu 11:21:09 PM 41.8839 -96.0366 163° South 486 559 34,200 1,864 Climbing FlightAware ADS-B
Thu 11:21:16 PM 41.8699 -96.0303 163° South 486 559 34,400 1,742 Climbing FlightAware ADS-B
Thu 11:21:40 PM 41.8171 -96.0077 162° South 485 558 35,100 1,714 Climbing FlightAware ADS-B
Thu 11:22:12 PM 41.7495 -95.9799 163° South 480 552 36,000 857 Climbing FlightAware ADS-B
Thu 11:22:43 PM 41.6841 -95.9523 163° South 479 551 36,000  Level FlightAware ADS-B
Thu 11:23:14 PM 41.6170 -95.9241 163° South 480 552 36,000  Level FlightAware ADS-B
Thu 11:23:36 PM 41.5724 -95.9053 163° South 482 555 36,000 194 Level FlightAware ADS-B
Thu 11:23:45 PM 41.5508 -95.8964 163° South 484 557 36,100 1,500 Climbing FlightAware ADS-B
Thu 11:24:16 PM 41.4856 -95.8688 163° South 481 554 37,000 1,869 Climbing FlightAware ADS-B
Thu 11:24:46 PM 41.4225 -95.8425 163° South 472 543 38,000 1,672 Climbing FlightAware ADS-B
Thu 11:25:17 PM 41.3582 -95.8157 163° South 471 542 38,700 984 Climbing FlightAware ADS-B
Thu 11:25:47 PM 41.2944 -95.7898 163° South 473 544 39,000 290 Climbing FlightAware ADS-B
Thu 11:26:19 PM 41.2287 -95.7621 163° South 473 544 39,000  Level FlightAware ADS-B
Thu 11:26:49 PM 41.1659 -95.7347 160° South 475 547 39,000  Level FlightAware ADS-B
Thu 11:27:19 PM 41.1039 -95.7030 158° South 476 548 39,000  Level FlightAware ADS-B
Thu 11:27:50 PM 41.0408 -95.6685 157° South 477 549 39,000  Level FlightAware ADS-B
Thu 11:27:56 PM 41.0290 -95.6617 157° South 477 549 39,000  Level FlightAware ADS-B
Thu 11:28:20 PM 40.9796 -95.6348 157° South 477 549 39,000  Level FlightAware ADS-B
Thu 11:28:54 PM 40.9111 -95.5969 158° South 476 548 39,000  Level FlightAware ADS-B
Thu 11:29:13 PM 40.8722 -95.5759 158° South 476 548 39,000  Level FlightAware ADS-B
Thu 11:29:24 PM 40.8485 -95.5638 158° South 477 549 39,000  Level FlightAware ADS-B
Thu 11:29:55 PM 40.7855 -95.5296 158° South 476 548 39,000  Level FlightAware ADS-B
Thu 11:30:26 PM 40.7242 -95.4965 158° South 475 547 39,000  Level FlightAware ADS-B
Thu 11:31:35 PM 40.5825 -95.4198 158° South 475 547 39,000  Level FlightAware ADS-B
Thu 11:32:06 PM 40.5191 -95.3858 158° South 477 549 39,000  Level FlightAware ADS-B
Thu 11:32:37 PM 40.4556 -95.3518 158° South 477 549 39,000  Level FlightAware ADS-B
Thu 11:33:38 PM 40.3581 -95.3008 158° South 476 548 39,000  Level Minneapolis Center
Thu 11:34:40 PM 40.2106 -95.2208 157° South 476 548 39,000  Level Minneapolis Center
Thu 11:35:41 PM 40.0867 -95.1561 158° South 476 548 39,000  Level Minneapolis Center
Thu 11:36:43 PM 39.9636 -95.0911 158° South 476 548 39,000  Level Minneapolis Center
Thu 11:37:37 PM 39.8731 -95.0267 151° Southeast 476 548 39,000  Level Kansas City Center
Thu 11:38:39 PM 39.7678 -94.9142 141° Southeast 484 557 39,000  Level Kansas City Center
Thu 11:39:42 PM 39.6597 -94.8067 143° Southeast 484 557 39,000  Level Kansas City Center
Thu 11:40:43 PM 39.5336 -94.6714 140° Southeast 485 558 39,000  Level Kansas City Center
Thu 11:41:44 PM 39.4275 -94.5586 141° Southeast 487 560 39,000  Level Kansas City Center
Thu 11:42:44 PM 39.3219 -94.4456 140° Southeast 488 562 39,000  Level Kansas City Center
Thu 11:43:45 PM 39.2158 -94.3358 141° Southeast 488 562 39,000  Level Kansas City Center
Thu 11:44:45 PM 39.1111 -94.2256 141° Southeast 487 560 39,000  Level Kansas City Center
Thu 11:45:47 PM 39.0064 -94.1164 141° Southeast 486 559 39,000  Level Kansas City Center
Thu 11:46:48 PM 38.9028 -94.0072 141° Southeast 484 557 39,000  Level Kansas City Center
Thu 11:47:51 PM 38.7986 -93.8994 141° Southeast 483 556 39,000  Level Kansas City Center
Thu 11:48:52 PM 38.6925 -93.7903 141° Southeast 482 555 39,000  Level Kansas City Center
Thu 11:49:53 PM 38.5953 -93.6881 141° Southeast 474 545 39,000  Level Kansas City Center
Thu 11:50:54 PM 38.4906 -93.5803 141° Southeast 476 548 39,000  Level Kansas City Center
Thu 11:51:55 PM 38.3653 -93.4511 141° Southeast 480 552 39,000  Level Kansas City Center
Thu 11:52:57 PM 38.2594 -93.3450 142° Southeast 481 554 39,000 -443 Level Kansas City Center
Thu 11:53:57 PM 38.1547 -93.2364 141° Southeast 482 555 38,100 -1,000 Descending Kansas City Center
Thu 11:54:57 PM 38.0492 -93.1308 142° Southeast 482 555 37,000 -545 Descending Kansas City Center
Thu 11:55:58 PM 37.9519 -93.0142 137° Southeast 489 563 37,000  Level Kansas City Center
Thu 11:56:58 PM 37.8819 -92.8675 121° Southeast 493 567 37,000  Level Kansas City Center
Thu 11:58:02 PM 37.8053 -92.7072 121° Southeast 492 566 37,000  Level Kansas City Center
Thu 11:59:03 PM 37.7272 -92.5672 125° Southeast 492 566 37,000  Level Kansas City Center
Fri 12:00:05 AM 37.6525 -92.4425 127° Southeast 492 566 37,000  Level Kansas City Center
Fri 12:01:06 AM 37.5564 -92.2767 126° Southeast 492 566 37,000  Level Kansas City Center
Fri 12:02:04 AM 37.4764 -92.1397 126° Southeast 492 566 37,000  Level Kansas City Center
Fri 12:03:08 AM 37.3814 -92.0189 135° Southeast 492 566 37,000  Level Kansas City Center
Fri 12:04:08 AM 37.2794 -91.9094 139° Southeast 487 560 37,000  Level Kansas City Center
Fri 12:05:10 AM 37.1675 -91.8156 146° Southeast 484 557 37,000  Level Kansas City Center
Fri 12:06:10 AM 37.0472 -91.7425 154° Southeast 477 549 37,000 -347 Level Kansas City Center
Fri 12:07:11 AM 36.9214 -91.6817 159° South 481 554 36,300 -1,024 Descending Kansas City Center
Fri 12:08:13 AM 36.7972 -91.6167 157° South 481 554 34,900 -1,150 Descending Kansas City Center
Fri 12:09:11 AM 36.6717 -91.5514 157° South 483 556 34,000 -446 Descending Kansas City Center
Fri 12:10:14 AM 36.5511 -91.4858 156° South 490 564 34,000  Level Kansas City Center
Fri 12:11:23 AM 36.3911 -91.4031 157° South 491 565 34,000 -138 Level Memphis Center
Fri 12:12:24 AM 36.2661 -91.3378 157° South 490 564 33,700 -1,377 Descending Memphis Center
Fri 12:13:25 AM 36.1419 -91.2714 157° South 489 563 31,200 -3,174 Descending Memphis Center
Fri 12:14:25 AM 36.0219 -91.1989 154° Southeast 488 562 27,300 -2,975 Descending Memphis Center
Fri 12:15:26 AM 35.9067 -91.1289 154° Southeast 474 545 25,200 -2,016 Descending Memphis Center
Fri 12:16:27 AM 35.7961 -91.0614 154° Southeast 458 527 23,200 -2,016 Descending Memphis Center
Fri 12:17:28 AM 35.6747 -90.9886 154° Southeast 439 505 21,100 -1,918 Descending Memphis Center
Fri 12:18:29 AM 35.5714 -90.9272 154° Southeast 421 484 19,300 -1,574 Descending Memphis Center
Fri 12:19:30 AM 35.4856 -90.8458 142° Southeast 401 461 17,900 -1,475 Descending Memphis Center
Fri 12:20:31 AM 35.4436 -90.7314 114° Southeast 373 429 16,300 -1,623 Descending Memphis Center
Fri 12:21:32 AM 35.4011 -90.6189 115° Southeast 367 422 14,600 -1,636 Descending Memphis Center
Fri 12:22:32 AM 35.3600 -90.5111 115° Southeast 357 411 13,000 -1,587 Descending Memphis Center
Fri 12:23:33 AM 35.3061 -90.4144 124° Southeast 350 403 11,400 -1,033 Descending Memphis Center
Fri 12:24:34 AM 35.2508 -90.3331 130° Southeast 323 372 10,900 -689 Descending Memphis Center
Fri 12:25:35 AM 35.1972 -90.2536 130° Southeast 305 351 10,000 -942 Descending Memphis Center
Fri 12:26:35 AM 35.1467 -90.1783 129° Southeast 294 338 9,000 -1,041 Descending Memphis Center
Fri 12:27:36 AM 35.0864 -90.1089 137° Southeast 261 300 7,900 -984 Descending Memphis Center
Fri 12:28:37 AM 35.0244 -90.1094 180° South 227 261 7,000 -836 Descending Memphis Center
Fri 12:29:38 AM 34.9622 -90.1081 179° South 225 259 6,200 -942 Descending Memphis Center
Fri 12:30:38 AM 34.9022 -90.1064 179° South 222 255 5,100 -744 Descending Memphis Center
Fri 12:31:39 AM 34.8417 -90.1044 178° South 222 255 4,700 -541 Descending Memphis Center
Fri 12:32:40 AM 34.7822 -90.1017 178° South 221 254 4,000 -347 Descending Memphis Center
Fri 12:33:40 AM 34.7489 -90.0503 128° Southeast 231 266 4,000 -198 Level Memphis Center
Fri 12:34:41 AM 34.7864 -89.9894 53° Northeast 238 274 3,600 -787 Descending Memphis Center
Fri 12:35:42 AM 34.8528 -89.9828 North 241 277 2,400 -793 Descending Memphis Center
Fri 12:36:42 AM 34.9172 -89.9853 358° North 236 272 2,000 -496 Descending Memphis Center
Fri 12:37:43 AM 34.9694 -89.9853 360° North 202 232 1,400 -694 Descending Memphis Center
Fri 12:38:43 AM 35.0128 -89.9867 358° North 165 190 600 -800 Descending Memphis Center
Fri 12:40:00 AM 35.0333 -89.9667 North  Level FlightAware Approximate

Login

Don't have an account? Register now (free) for customized features, flight alerts, and more!